Flight Track Log - Related Links

Times and Time Zones

All times are in EDT time to prevent confusion due to time zone crossing. See the SWA1035 flight status page for this flight to view local times or setup timezone preferences in your user account.


Time Position Orientation Groundspeed Altitude Reporting Facility
EDT Latitude Longitude Course Direction KTS MPH feet Rate Location/Type
Wed 07:09:59 AM 42.9500 -71.4167 36° Northeast 160 184 1,400  Level KA90
Wed 07:10:23 AM 42.9667 -71.4000 36° Northeast 186 214 1,900 2,286 Climbing KA90
Wed 07:11:23 AM 43.0167 -71.3500 36° Northeast 223 257 4,600 3,018 Climbing KA90
Wed 07:13:14 AM 43.0458 -71.1844 76° East 267 307 10,500 2,877 Climbing Boston Center
Wed 07:14:14 AM 43.0694 -71.0703 74° East 291 335 12,800 2,850 Climbing Boston Center
Wed 07:15:14 AM 43.0472 -70.9486 104° East 314 361 16,200 2,750 Climbing Boston Center
Wed 07:16:14 AM 42.9631 -70.8911 153° Southeast 284 327 18,300 2,250 Climbing Boston Center
Wed 07:17:14 AM 42.8739 -70.9358 200° South 286 329 20,700 2,200 Climbing Boston Center
Wed 07:18:14 AM 42.7642 -70.9892 200° South 365 420 22,700 2,250 Climbing Boston Center
Wed 07:19:14 AM 42.6714 -71.0733 214° Southwest 391 450 25,200 2,450 Climbing Boston Center
Wed 07:20:14 AM 42.6106 -71.2131 239° Southwest 391 450 27,600 1,500 Climbing Boston Center
Wed 07:21:14 AM 42.5453 -71.3522 238° Southwest 417 480 28,200 900 Climbing Boston Center
Wed 07:22:14 AM 42.4778 -71.5083 240° Southwest 452 520 29,400 1,300 Climbing Boston Center
Wed 07:23:14 AM 42.4061 -71.6614 238° Southwest 478 550 30,800 1,750 Climbing Boston Center
Wed 07:24:14 AM 42.3361 -71.8194 239° Southwest 485 558 32,900 1,800 Climbing Boston Center
Wed 07:25:14 AM 42.2700 -71.9350 232° Southwest 491 565 34,400 1,500 Climbing Boston Center
Wed 07:26:14 AM 42.1686 -72.1039 231° Southwest 491 565 35,900 800 Climbing Boston Center
Wed 07:27:14 AM 42.0856 -72.2442 231° Southwest 491 565 36,000 50 Climbing Boston Center
Wed 07:28:14 AM 42.0003 -72.3869 231° Southwest 491 565 36,000  Level Boston Center
Wed 07:29:14 AM 41.9169 -72.5294 232° Southwest 496 571 36,000  Level Boston Center
Wed 07:30:14 AM 41.8250 -72.6825 231° Southwest 491 565 36,000  Level Boston Center
Wed 07:31:14 AM 41.7453 -72.8158 231° Southwest 505 581 36,000  Level Boston Center
Wed 07:32:14 AM 41.6614 -72.9569 232° Southwest 505 581 36,000  Level Boston Center
Wed 07:33:14 AM 41.5772 -73.0978 231° Southwest 500 575 36,000 106 Level Boston Center
Wed 07:35:04 AM 41.4231 -73.3497 231° Southwest 493 567 36,300 593 Climbing New York Center
Wed 07:36:06 AM 41.3408 -73.4875 232° Southwest 488 562 37,700 850 Climbing New York Center
Wed 07:37:04 AM 41.2583 -73.6222 231° Southwest 482 555 38,000 151 Climbing New York Center
Wed 07:38:05 AM 41.1800 -73.7594 233° Southwest 477 549 38,000  Level New York Center
Wed 07:39:06 AM 41.0994 -73.8964 232° Southwest 477 549 38,000  Level New York Center
Wed 07:40:05 AM 41.0167 -74.0328 231° Southwest 477 549 38,000  Level New York Center
Wed 07:41:05 AM 40.9378 -74.1661 232° Southwest 477 549 38,000  Level New York Center
Wed 07:42:04 AM 40.8547 -74.2964 230° Southwest 477 549 38,000  Level New York Center
Wed 07:43:04 AM 40.7628 -74.4450 231° Southwest 482 555 38,000  Level New York Center
Wed 07:44:06 AM 40.6814 -74.5831 232° Southwest 482 555 38,000  Level New York Center
Wed 07:45:04 AM 40.5997 -74.7178 231° Southwest 482 555 38,000  Level New York Center
Wed 07:46:05 AM 40.5100 -74.8436 227° Southwest 482 555 38,000  Level New York Center
Wed 07:47:06 AM 40.4242 -74.9722 229° Southwest 477 549 38,000  Level New York Center
Wed 07:48:03 AM 40.3322 -75.1000 227° Southwest 477 549 38,000  Level New York Center
Wed 07:49:05 AM 40.2397 -75.2275 226° Southwest 482 555 38,000  Level New York Center
Wed 07:50:04 AM 40.1514 -75.3578 228° Southwest 482 555 38,000  Level New York Center
Wed 07:51:05 AM 40.0611 -75.4819 226° Southwest 482 555 38,000  Level New York Center
Wed 07:52:06 AM 39.9683 -75.6083 226° Southwest 482 555 38,000  Level New York Center
Wed 07:53:04 AM 39.8839 -75.7350 229° Southwest 477 549 38,000  Level New York Center
Wed 07:54:06 AM 39.8011 -75.8669 231° Southwest 477 549 38,000  Level New York Center
Wed 07:55:04 AM 39.7161 -75.9986 230° Southwest 477 549 38,000  Level New York Center
Wed 07:56:07 AM 39.6333 -76.1272 230° Southwest 482 555 38,000  Level New York Center
Wed 07:57:05 AM 39.5458 -76.2581 229° Southwest 477 549 38,000  Level New York Center
Wed 07:57:28 AM 39.5197 -76.3072 235° Southwest 470 541 38,000  Level Washington Center
Wed 07:58:26 AM 39.4314 -76.4353 228° Southwest 464 534 38,000  Level Washington Center
Wed 07:59:26 AM 39.3472 -76.5683 231° Southwest 470 541 38,000  Level Washington Center
Wed 08:00:27 AM 39.2647 -76.6961 230° Southwest 470 541 38,000  Level Washington Center
Wed 08:01:27 AM 39.1842 -76.8233 231° Southwest 470 541 38,000  Level Washington Center
Wed 08:02:27 AM 39.1017 -76.9531 231° Southwest 470 541 38,000  Level Washington Center
Wed 08:03:28 AM 39.0128 -77.0742 227° Southwest 470 541 38,000  Level Washington Center
Wed 08:04:28 AM 38.9156 -77.1789 220° Southwest 460 529 38,000  Level Washington Center
Wed 08:05:26 AM 38.8161 -77.2861 220° Southwest 466 536 38,000  Level Washington Center
Wed 08:06:26 AM 38.7186 -77.3931 221° Southwest 466 536 38,000  Level Washington Center
Wed 08:07:28 AM 38.6317 -77.4892 221° Southwest 466 536 38,000  Level Washington Center
Wed 08:08:28 AM 38.5297 -77.5981 220° Southwest 466 536 38,000  Level Washington Center
Wed 08:09:26 AM 38.4319 -77.7067 221° Southwest 466 536 38,000  Level Washington Center
Wed 08:10:27 AM 38.3342 -77.8125 220° Southwest 466 536 38,000  Level Washington Center
Wed 08:11:27 AM 38.2383 -77.9153 220° Southwest 466 536 38,000  Level Washington Center
Wed 08:12:27 AM 38.1425 -78.0208 221° Southwest 461 531 38,000  Level Washington Center
Wed 08:13:28 AM 38.0464 -78.1231 220° Southwest 461 531 38,000  Level Washington Center
Wed 08:14:28 AM 37.9419 -78.2303 219° Southwest 454 522 38,000  Level Washington Center
Wed 08:15:26 AM 37.8525 -78.3111 216° Southwest 454 522 38,000  Level Washington Center
Wed 08:16:26 AM 37.7525 -78.4047 217° Southwest 454 522 38,000  Level Washington Center
Wed 08:17:27 AM 37.6500 -78.5006 217° Southwest 459 528 38,000  Level Washington Center
Wed 08:18:28 AM 37.5389 -78.6064 217° Southwest 465 535 38,000  Level Washington Center
Wed 08:19:28 AM 37.4364 -78.7017 216° Southwest 465 535 38,000  Level Washington Center
Wed 08:20:26 AM 37.3358 -78.7942 216° Southwest 465 535 38,000  Level Washington Center
Wed 08:21:28 AM 37.2394 -78.8842 217° Southwest 459 528 38,000  Level Washington Center
Wed 08:22:28 AM 37.1411 -78.9739 216° Southwest 452 520 38,000  Level Washington Center
Wed 08:23:26 AM 37.0531 -79.0558 217° Southwest 441 507 38,000  Level Washington Center
Wed 08:24:27 AM 36.9567 -79.1450 216° Southwest 441 507 38,000  Level Washington Center
Wed 08:25:27 AM 36.8603 -79.2339 216° Southwest 441 507 38,000  Level Washington Center
Wed 08:26:28 AM 36.7656 -79.3231 217° Southwest 441 507 38,000  Level Washington Center
Wed 08:27:28 AM 36.6669 -79.4089 215° Southwest 441 507 38,000  Level Washington Center
Wed 08:29:28 AM 36.4636 -79.5936 216° Southwest 444 511 38,000  Level Atlanta Center
Wed 08:30:28 AM 36.3708 -79.6811 217° Southwest 433 498 38,000  Level Atlanta Center
Wed 08:31:28 AM 36.2842 -79.7606 216° Southwest 428 493 38,000  Level Atlanta Center
Wed 08:32:28 AM 36.1889 -79.8453 216° Southwest 428 493 38,000  Level Atlanta Center
Wed 08:33:28 AM 36.0917 -79.9300 215° Southwest 428 493 38,000  Level Atlanta Center
Wed 08:34:28 AM 35.9917 -79.9992 209° Southwest 428 493 38,000  Level Atlanta Center
Wed 08:35:28 AM 35.8686 -80.0617 202° Southwest 428 493 38,000  Level Atlanta Center
Wed 08:36:28 AM 35.7600 -80.1183 203° Southwest 434 499 38,000  Level Atlanta Center
Wed 08:37:28 AM 35.6469 -80.1747 202° Southwest 439 505 38,000  Level Atlanta Center
Wed 08:38:28 AM 35.5381 -80.2308 203° Southwest 434 499 38,000  Level Atlanta Center
Wed 08:39:28 AM 35.4397 -80.2814 203° Southwest 429 494 38,000  Level Atlanta Center
Wed 08:40:28 AM 35.3286 -80.3347 201° Southwest 429 494 38,000  Level Atlanta Center
Wed 08:41:28 AM 35.2175 -80.3906 202° Southwest 434 499 38,000  Level Atlanta Center
Wed 08:42:28 AM 35.1067 -80.4464 202° Southwest 434 499 38,000  Level Atlanta Center
Wed 08:44:16 AM 34.8933 -80.5514 202° Southwest 434 499 38,000  Level Jacksonville Center
Wed 08:45:16 AM 34.8003 -80.5994 203° Southwest 428 493 38,000  Level Jacksonville Center
Wed 08:46:16 AM 34.6886 -80.6556 202° Southwest 423 487 38,000  Level Jacksonville Center
Wed 08:47:16 AM 34.5583 -80.7194 202° Southwest 448 516 38,000  Level Jacksonville Center
Wed 08:48:16 AM 34.4569 -80.7622 199° South 447 514 38,000  Level Jacksonville Center
Wed 08:49:16 AM 34.3472 -80.8203 204° Southwest 438 504 38,000  Level Jacksonville Center
Wed 08:50:16 AM 34.2314 -80.8783 203° Southwest 427 491 38,000  Level Jacksonville Center
Wed 08:51:16 AM 34.1194 -80.9286 200° South 427 491 38,000  Level Jacksonville Center
Wed 08:52:16 AM 34.0097 -80.9836 203° Southwest 427 491 38,000  Level Jacksonville Center
Wed 08:53:16 AM 33.9228 -81.0256 202° Southwest 427 491 38,000  Level Jacksonville Center
Wed 08:54:16 AM 33.8067 -81.0806 201° Southwest 427 491 38,000  Level Jacksonville Center
Wed 08:55:16 AM 33.6886 -81.1428 204° Southwest 427 491 38,000  Level Jacksonville Center
Wed 08:56:16 AM 33.5808 -81.1947 202° Southwest 422 486 38,000  Level Jacksonville Center
Wed 08:57:16 AM 33.4772 -81.2467 203° Southwest 422 486 38,000  Level Jacksonville Center
Wed 08:58:16 AM 33.3736 -81.2983 203° Southwest 412 474 38,000  Level Jacksonville Center
Wed 08:59:16 AM 33.2678 -81.3472 201° Southwest 412 474 38,000  Level Jacksonville Center
Wed 09:00:16 AM 33.1658 -81.3961 202° Southwest 412 474 38,000  Level Jacksonville Center
Wed 09:01:16 AM 33.0622 -81.4425 201° Southwest 412 474 38,000  Level Jacksonville Center
Wed 09:02:16 AM 32.9583 -81.4939 203° Southwest 407 468 38,000  Level Jacksonville Center
Wed 09:03:16 AM 32.8628 -81.5397 202° Southwest 407 468 38,000  Level Jacksonville Center
Wed 09:04:16 AM 32.7589 -81.5908 202° Southwest 401 461 38,000  Level Jacksonville Center
Wed 09:05:16 AM 32.6614 -81.6414 204° Southwest 395 455 38,000  Level Jacksonville Center
Wed 09:06:16 AM 32.5678 -81.6872 202° Southwest 395 455 38,000  Level Jacksonville Center
Wed 09:07:16 AM 32.4578 -81.7403 202° Southwest 395 455 38,000  Level Jacksonville Center
Wed 09:08:16 AM 32.3642 -81.7833 201° Southwest 395 455 38,000  Level Jacksonville Center
Wed 09:09:16 AM 32.2519 -81.8386 203° Southwest 395 455 38,000  Level Jacksonville Center
Wed 09:10:16 AM 32.1481 -81.8889 202° Southwest 395 455 38,000  Level Jacksonville Center
Wed 09:11:16 AM 32.0544 -81.9342 202° Southwest 395 455 38,000  Level Jacksonville Center
Wed 09:12:16 AM 31.9397 -81.9819 199° South 395 455 38,000  Level Jacksonville Center
Wed 09:13:16 AM 31.8461 -82.0194 199° South 400 460 38,000  Level Jacksonville Center
Wed 09:14:16 AM 31.7294 -82.0669 199° South 400 460 38,000  Level Jacksonville Center
Wed 09:15:16 AM 31.6233 -82.1094 199° South 406 467 38,000  Level Jacksonville Center
Wed 09:16:16 AM 31.5317 -82.1492 200° South 406 467 38,000  Level Jacksonville Center
Wed 09:17:16 AM 31.4275 -82.1914 199° South 406 467 38,000  Level Jacksonville Center
Wed 09:18:16 AM 31.3214 -82.2311 198° South 406 467 38,000  Level Jacksonville Center
Wed 09:19:16 AM 31.2150 -82.2756 200° South 406 467 38,000  Level Jacksonville Center
Wed 09:20:16 AM 31.1089 -82.3175 199° South 406 467 38,000  Level Jacksonville Center
Wed 09:21:16 AM 31.0044 -82.3594 199° South 406 467 38,000  Level Jacksonville Center
Wed 09:22:16 AM 30.8983 -82.3986 198° South 406 467 38,000  Level Jacksonville Center
Wed 09:23:16 AM 30.7875 -82.4186 189° South 400 460 38,000  Level Jacksonville Center
Wed 09:24:16 AM 30.6706 -82.4119 177° South 406 467 38,000  Level Jacksonville Center
Wed 09:25:16 AM 30.5558 -82.4053 177° South 411 473 38,000  Level Jacksonville Center
Wed 09:26:16 AM 30.4408 -82.4011 178° South 416 479 38,000  Level Jacksonville Center
Wed 09:27:16 AM 30.3261 -82.3969 178° South 416 479 38,000  Level Jacksonville Center
Wed 09:28:16 AM 30.1986 -82.3903 177° South 421 484 38,000 -1,000 Level Jacksonville Center
Wed 09:29:16 AM 30.0858 -82.3861 178° South 421 484 36,000 -2,150 Descending Jacksonville Center
Wed 09:30:16 AM 29.9731 -82.3747 175° South 421 484 33,700 -2,150 Descending Jacksonville Center
Wed 09:31:16 AM 29.8603 -82.3706 178° South 421 484 31,700 -1,950 Descending Jacksonville Center
Wed 09:32:16 AM 29.7519 -82.3664 178° South 409 471 29,800 -1,950 Descending Jacksonville Center
Wed 09:33:16 AM 29.6433 -82.3597 177° South 403 464 27,800 -1,600 Descending Jacksonville Center
Wed 09:34:16 AM 29.5367 -82.3531 177° South 393 452 26,600 -1,150 Descending Jacksonville Center
Wed 09:35:16 AM 29.4447 -82.3417 174° South 381 438 25,500 -1,200 Descending Jacksonville Center
Wed 09:36:16 AM 29.3406 -82.3303 175° South 376 433 24,200 -1,750 Descending Jacksonville Center
Wed 09:37:16 AM 29.2319 -82.3144 173° South 387 445 22,000 -2,200 Descending Jacksonville Center
Wed 09:38:16 AM 29.1233 -82.3056 176° South 394 453 19,800 -2,100 Descending Jacksonville Center
Wed 09:39:16 AM 29.0208 -82.2919 173° South 389 448 17,800 -2,150 Descending Jacksonville Center
Wed 09:40:16 AM 28.9164 -82.2783 173° South 384 442 15,500 -2,150 Descending Jacksonville Center
Wed 09:41:16 AM 28.8161 -82.2694 176° South 379 436 13,500 -1,011 Descending Jacksonville Center
Wed 09:43:26 AM 28.6167 -82.2500 175° South 296 341 12,300 -853 Descending Tampa TRACON
Wed 09:44:26 AM 28.5333 -82.2500 180° South 295 339 10,800 -1,400 Descending Tampa TRACON
Wed 09:45:26 AM 28.4667 -82.2500 180° South 288 331 9,500 -1,450 Descending Tampa TRACON
Wed 09:46:26 AM 28.3833 -82.2500 180° South 282 325 7,900 -1,350 Descending Tampa TRACON
Wed 09:47:26 AM 28.3167 -82.3000 213° Southwest 277 319 6,800 -1,400 Descending Tampa TRACON
Wed 09:48:26 AM 28.2833 -82.3833 246° West 280 322 5,100 -1,700 Descending Tampa TRACON
Wed 09:49:26 AM 28.2500 -82.4500 240° Southwest 276 318 3,400 -1,050 Descending Tampa TRACON
Wed 09:50:26 AM 28.2167 -82.5167 240° Southwest 230 265 3,000 -200 Descending Tampa TRACON
Wed 09:51:26 AM 28.1667 -82.5167 180° South 202 232 3,000 -298 Level Tampa TRACON
Wed 09:52:27 AM 28.1000 -82.5167 180° South 194 223 2,400 -744 Descending Tampa TRACON
Wed 09:53:27 AM 28.0500 -82.5333 196° South 180 207 1,500 -850 Descending Tampa TRACON
Wed 09:54:27 AM 28.0167 -82.5333 180° South 141 162 700 -800 Descending Tampa TRACON

Login

Don't have an account? Register now (free) for customized features, flight alerts, and more!